createdAt,value
2019-01-20T01:02:45.079Z,56.47
2019-01-20T01:07:46.370Z,56.49
2019-01-20T01:12:47.683Z,56.46
2019-01-20T01:17:48.971Z,57.16
2019-01-20T01:22:50.282Z,57.67
2019-01-20T01:27:51.578Z,57.88
2019-01-20T02:30:49.325Z,56.25
2019-01-20T02:35:50.598Z,56.56
2019-01-20T02:40:51.887Z,56.68
2019-01-20T02:45:53.179Z,56.80
2019-01-20T02:50:54.452Z,56.31
2019-01-20T02:55:56.468Z,56.81
2019-01-20T04:04:20.332Z,57.67
2019-01-20T04:09:21.619Z,57.76
2019-01-20T04:14:23.657Z,57.68
2019-01-20T04:19:24.973Z,57.67
2019-01-20T04:24:26.315Z,57.96
2019-01-20T04:29:28.348Z,58.02
2019-01-20T06:03:13.966Z,57.57
2019-01-20T06:08:15.441Z,57.38
2019-01-20T06:13:16.860Z,57.39
2019-01-20T06:18:19.491Z,57.27
2019-01-20T06:23:21.083Z,56.94
2019-01-20T06:28:30.357Z,57.12
2019-01-20T06:33:33.259Z,57.26
2019-01-20T06:38:34.691Z,56.84
2019-01-20T06:43:35.998Z,56.65
2019-01-20T06:48:37.309Z,56.65
2019-01-20T06:53:38.596Z,56.49
2019-01-20T06:58:40.640Z,56.52
2019-01-20T07:03:42.201Z,56.72
2019-01-20T07:08:43.637Z,56.75
2019-01-20T07:13:47.183Z,56.68
2019-01-20T07:18:49.502Z,56.38
2019-01-20T07:23:50.793Z,56.52
2019-01-20T07:28:52.849Z,58.72
2019-01-20T07:33:54.174Z,56.56
2019-01-20T07:38:56.897Z,60.28
2019-01-20T07:43:59.270Z,57.14
2019-01-20T07:49:00.641Z,56.15
2019-01-20T07:54:01.965Z,56.51
2019-01-20T07:59:03.805Z,56.81
2019-01-20T08:04:05.477Z,57.63
2019-01-20T08:09:07.588Z,57.04
2019-01-20T08:14:08.964Z,57.29
2019-01-20T08:19:10.288Z,57.11
2019-01-20T08:24:11.587Z,57.17
2019-01-20T08:29:13.040Z,56.77
2019-01-20T08:34:15.100Z,56.59
2019-01-20T08:39:16.447Z,56.45
2019-01-20T08:44:17.784Z,56.41
2019-01-20T08:49:19.146Z,56.52
2019-01-20T08:54:20.501Z,57.01
2019-01-20T08:59:21.809Z,56.61
2019-01-20T09:04:23.133Z,56.96
2019-01-20T09:09:24.446Z,56.62
2019-01-20T09:14:25.785Z,56.38
2019-01-20T09:19:27.092Z,56.75
2019-01-20T09:24:28.385Z,56.31
2019-01-20T09:29:29.807Z,56.38
2019-01-20T09:34:31.104Z,56.57
2019-01-20T09:39:32.407Z,56.34
2019-01-20T09:44:33.797Z,56.48
2019-01-20T09:49:35.228Z,56.49
2019-01-20T09:54:36.687Z,56.53
2019-01-20T09:59:39.362Z,56.51
2019-01-20T10:04:40.669Z,56.42
2019-01-20T10:09:42.119Z,56.56
2019-01-20T10:14:43.458Z,56.25
2019-01-20T10:19:44.780Z,56.11
2019-01-20T10:24:46.093Z,56.17
2019-01-20T10:29:47.409Z,56.34
2019-01-20T10:34:48.757Z,55.93
2019-01-20T10:39:50.072Z,56.20
2019-01-20T10:44:51.402Z,55.90
2019-01-20T10:49:53.534Z,55.67
2019-01-20T10:54:54.868Z,56.10
2019-01-20T10:59:56.177Z,55.46
2019-01-20T11:04:58.466Z,55.25
2019-01-20T11:09:59.782Z,56.72
2019-01-20T11:15:01.878Z,57.54
2019-01-20T11:20:03.979Z,58.00
2019-01-20T11:25:06.196Z,58.47
2019-01-20T11:30:07.553Z,58.00
2019-01-20T11:35:09.714Z,58.01
2019-01-20T11:40:11.067Z,57.46
2019-01-20T11:45:19.159Z,57.50
2019-01-20T11:50:21.036Z,57.09
2019-01-20T11:55:23.723Z,59.78
2019-01-20T12:00:28.933Z,60.37
2019-01-20T12:05:32.272Z,59.28
2019-01-20T12:10:33.642Z,60.47
2019-01-20T12:15:34.942Z,59.53
2019-01-20T12:20:36.307Z,60.45
2019-01-20T12:25:37.589Z,59.55
2019-01-20T12:30:38.879Z,59.57
2019-01-20T12:35:40.239Z,58.53
2019-01-20T12:40:41.813Z,59.52
2019-01-20T12:45:43.384Z,60.17
2019-01-20T12:50:44.964Z,59.70
2019-01-20T12:55:46.276Z,59.07
2019-01-20T13:00:47.825Z,59.20
2019-01-20T13:05:50.034Z,59.73
2019-01-20T13:10:51.333Z,59.81
2019-01-20T13:15:52.725Z,60.72
2019-01-20T13:20:54.334Z,61.15
2019-01-20T13:25:55.787Z,60.59
2019-01-20T13:30:57.253Z,60.50
2019-01-20T13:35:58.697Z,59.92
2019-01-20T13:41:00.776Z,59.60
2019-01-20T13:46:02.076Z,59.40
2019-01-20T13:51:03.581Z,59.00
2019-01-20T13:56:05.019Z,58.68
2019-01-20T14:01:06.461Z,58.47
2019-01-20T14:06:08.521Z,58.24
2019-01-20T14:11:09.868Z,57.99
2019-01-20T14:16:11.180Z,57.73
2019-01-20T14:21:12.513Z,58.07
2019-01-20T14:26:14.580Z,58.20
2019-01-20T14:31:19.144Z,58.12
2019-01-20T14:36:22.625Z,58.56
2019-01-20T14:41:24.039Z,58.69
2019-01-20T14:46:30.376Z,58.63
2019-01-20T14:51:36.470Z,58.68
2019-01-20T14:56:38.576Z,58.96
2019-01-20T15:01:39.993Z,59.00
2019-01-20T15:06:41.318Z,59.60
2019-01-20T15:11:42.663Z,59.51
2019-01-20T15:16:44.717Z,59.48
2019-01-20T15:21:46.140Z,59.58
2019-01-20T15:26:47.565Z,59.80
2019-01-20T15:31:49.077Z,60.27
2019-01-20T15:36:50.427Z,60.56
2019-01-20T15:41:51.748Z,60.93
2019-01-20T15:46:53.070Z,61.44
2019-01-20T15:51:54.436Z,61.74
2019-01-20T15:56:55.905Z,62.24
2019-01-20T16:01:57.299Z,62.87
2019-01-20T16:06:58.686Z,62.78
2019-01-20T16:12:00.000Z,62.99
2019-01-20T16:17:02.599Z,62.98
2019-01-20T16:22:04.007Z,62.81
2019-01-20T16:27:05.465Z,62.83
2019-01-20T16:32:07.294Z,62.66
2019-01-20T16:37:08.681Z,62.63
2019-01-20T16:42:10.004Z,62.57
2019-01-20T16:47:12.266Z,62.39
2019-01-20T16:52:13.732Z,62.56
2019-01-20T16:57:15.098Z,62.68
2019-01-20T17:02:17.225Z,62.80
2019-01-20T17:07:18.534Z,63.03
2019-01-20T17:12:19.880Z,63.02
2019-01-20T17:17:23.249Z,63.07
2019-01-20T17:22:25.606Z,63.02
2019-01-20T17:27:26.888Z,63.29
2019-01-20T17:32:28.916Z,63.07
2019-01-20T17:37:30.232Z,63.05
2019-01-20T17:42:31.529Z,63.08
2019-01-20T17:47:33.934Z,62.98
2019-01-20T17:52:41.809Z,63.07
2019-01-20T17:57:45.938Z,63.24
2019-01-20T18:02:50.913Z,62.89
2019-01-20T18:07:55.657Z,63.26
2019-01-20T18:13:08.422Z,63.26
2019-01-20T18:18:09.763Z,63.70
2019-01-20T18:23:11.217Z,63.44
2019-01-20T18:28:12.572Z,63.58
2019-01-20T18:33:13.922Z,63.73
2019-01-20T18:38:15.245Z,63.69
2019-01-20T18:43:16.665Z,63.97
2019-01-20T18:48:21.645Z,64.31
2019-01-20T18:53:22.988Z,64.61
2019-01-20T18:58:31.507Z,64.50
2019-01-20T19:03:40.617Z,64.25
2019-01-20T19:08:41.929Z,64.12
2019-01-20T19:13:43.232Z,64.36
2019-01-20T19:18:44.550Z,64.40
2019-01-20T19:23:45.904Z,64.01
2019-01-20T19:28:47.216Z,63.79
2019-01-20T19:33:48.565Z,64.04
2019-01-20T19:38:50.941Z,64.82
2019-01-20T19:43:57.388Z,65.12
2019-01-20T19:48:59.434Z,64.39
2019-01-20T19:54:00.779Z,64.94
2019-01-20T19:59:11.213Z,64.41
2019-01-20T20:04:17.523Z,64.37
2019-01-20T20:09:19.219Z,64.45
2019-01-20T20:14:21.174Z,64.31
2019-01-20T20:19:30.289Z,64.16
2019-01-20T20:24:33.410Z,64.13
2019-01-20T20:29:35.689Z,64.27
2019-01-20T20:34:37.814Z,63.84
2019-01-20T20:39:39.261Z,63.93
2019-01-20T20:44:40.558Z,63.65
2019-01-20T20:49:41.878Z,63.87
2019-01-20T20:54:50.461Z,64.14
2019-01-20T20:59:56.346Z,63.76
2019-01-20T21:04:57.671Z,63.65
2019-01-20T21:09:59.109Z,64.55
2019-01-20T21:15:03.274Z,64.53
2019-01-20T21:20:01.741Z,63.97
2019-01-20T21:25:03.056Z,64.70
2019-01-20T21:30:06.199Z,64.46
2019-01-20T21:35:14.759Z,64.57
2019-01-20T21:40:16.180Z,64.51
2019-01-20T21:45:18.239Z,64.48
2019-01-20T21:50:21.638Z,64.90
2019-01-20T21:55:22.966Z,64.38
2019-01-20T22:00:24.268Z,64.69
2019-01-20T22:05:25.572Z,64.43
2019-01-20T22:10:27.649Z,64.67
2019-01-20T22:15:29.706Z,64.69
2019-01-20T22:20:31.073Z,64.85
2019-01-20T22:25:32.445Z,64.71
2019-01-20T22:30:33.767Z,64.79
2019-01-20T22:35:35.065Z,64.81
2019-01-20T22:40:36.469Z,65.11
2019-01-20T22:45:37.765Z,65.18
2019-01-20T22:50:39.069Z,65.08
2019-01-20T22:55:40.395Z,64.98
2019-01-20T23:32:22.867Z,64.76
2019-01-20T23:37:24.179Z,64.69
2019-01-20T23:42:26.215Z,64.88
2019-01-20T23:47:27.510Z,65.14
2019-01-20T23:52:28.812Z,65.16
2019-01-20T23:57:30.081Z,65.30
